sensor_id;sensor_type;location;lat;lon;timestamp;P1;durP1;ratioP1;P2;durP2;ratioP2
55364;SDS011;41245;45.384;20.390;2023-07-20T00:01:59;13.20;;;3.72;;
55364;SDS011;41245;45.384;20.390;2023-07-20T00:04:25;12.10;;;3.60;;
55364;SDS011;41245;45.384;20.390;2023-07-20T00:06:51;7.43;;;3.20;;
55364;SDS011;41245;45.384;20.390;2023-07-20T00:09:17;6.53;;;3.67;;
55364;SDS011;41245;45.384;20.390;2023-07-20T00:11:50;9.80;;;4.30;;
55364;SDS011;41245;45.384;20.390;2023-07-20T00:14:16;6.13;;;2.97;;
55364;SDS011;41245;45.384;20.390;2023-07-20T00:16:43;8.73;;;3.25;;
55364;SDS011;41245;45.384;20.390;2023-07-20T00:19:09;5.15;;;3.00;;
55364;SDS011;41245;45.384;20.390;2023-07-20T00:21:35;6.57;;;4.35;;
55364;SDS011;41245;45.384;20.390;2023-07-20T00:24:02;7.22;;;3.97;;
55364;SDS011;41245;45.384;20.390;2023-07-20T00:26:28;11.23;;;3.92;;
55364;SDS011;41245;45.384;20.390;2023-07-20T00:28:54;8.05;;;5.00;;
55364;SDS011;41245;45.384;20.390;2023-07-20T00:31:20;5.82;;;3.55;;
55364;SDS011;41245;45.384;20.390;2023-07-20T00:33:46;10.75;;;3.97;;
55364;SDS011;41245;45.384;20.390;2023-07-20T00:36:13;6.35;;;3.25;;
55364;SDS011;41245;45.384;20.390;2023-07-20T00:38:39;7.93;;;3.70;;
55364;SDS011;41245;45.384;20.390;2023-07-20T00:41:06;6.05;;;3.67;;
55364;SDS011;41245;45.384;20.390;2023-07-20T00:43:32;9.45;;;4.10;;
55364;SDS011;41245;45.384;20.390;2023-07-20T00:45:58;11.45;;;4.65;;
55364;SDS011;41245;45.384;20.390;2023-07-20T00:48:24;9.23;;;3.60;;
55364;SDS011;41245;45.384;20.390;2023-07-20T00:50:50;9.93;;;4.28;;
55364;SDS011;41245;45.384;20.390;2023-07-20T00:53:16;5.82;;;3.45;;
55364;SDS011;41245;45.384;20.390;2023-07-20T00:55:43;7.03;;;3.78;;
55364;SDS011;41245;45.384;20.390;2023-07-20T00:58:09;12.27;;;3.63;;
55364;SDS011;41245;45.384;20.390;2023-07-20T01:00:36;7.15;;;2.97;;
55364;SDS011;41245;45.384;20.390;2023-07-20T01:03:02;9.93;;;5.10;;
55364;SDS011;41245;45.384;20.390;2023-07-20T01:08:18;6.57;;;4.10;;
55364;SDS011;41245;45.384;20.390;2023-07-20T01:10:51;5.25;;;3.58;;
55364;SDS011;41245;45.384;20.390;2023-07-20T01:13:20;9.25;;;3.20;;
55364;SDS011;41245;45.384;20.390;2023-07-20T01:15:50;5.55;;;2.90;;
55364;SDS011;41245;45.384;20.390;2023-07-20T01:18:19;5.45;;;3.88;;
55364;SDS011;41245;45.384;20.390;2023-07-20T01:20:45;8.15;;;3.65;;
55364;SDS011;41245;45.384;20.390;2023-07-20T01:31:11;10.50;;;2.97;;
55364;SDS011;41245;45.384;20.390;2023-07-20T01:33:38;10.20;;;3.80;;
55364;SDS011;41245;45.384;20.390;2023-07-20T01:36:04;6.95;;;2.83;;
55364;SDS011;41245;45.384;20.390;2023-07-20T01:38:31;8.25;;;3.38;;
55364;SDS011;41245;45.384;20.390;2023-07-20T01:40:57;7.65;;;3.05;;
55364;SDS011;41245;45.384;20.390;2023-07-20T01:43:23;6.05;;;2.55;;
55364;SDS011;41245;45.384;20.390;2023-07-20T01:45:49;8.02;;;3.05;;
55364;SDS011;41245;45.384;20.390;2023-07-20T01:48:15;9.60;;;3.60;;
55364;SDS011;41245;45.384;20.390;2023-07-20T01:50:41;4.55;;;2.42;;
55364;SDS011;41245;45.384;20.390;2023-07-20T01:53:08;9.35;;;3.70;;
55364;SDS011;41245;45.384;20.390;2023-07-20T01:55:34;5.10;;;2.83;;
55364;SDS011;41245;45.384;20.390;2023-07-20T01:58:00;11.10;;;4.15;;
55364;SDS011;41245;45.384;20.390;2023-07-20T02:00:26;8.40;;;2.83;;
55364;SDS011;41245;45.384;20.390;2023-07-20T02:02:53;8.02;;;3.03;;
55364;SDS011;41245;45.384;20.390;2023-07-20T02:05:19;9.20;;;3.33;;
55364;SDS011;41245;45.384;20.390;2023-07-20T02:07:45;12.25;;;3.33;;
55364;SDS011;41245;45.384;20.390;2023-07-20T02:10:11;8.73;;;2.75;;
55364;SDS011;41245;45.384;20.390;2023-07-20T02:12:37;5.35;;;2.88;;
55364;SDS011;41245;45.384;20.390;2023-07-20T02:15:03;9.40;;;2.97;;
55364;SDS011;41245;45.384;20.390;2023-07-20T02:17:29;18.73;;;3.42;;
55364;SDS011;41245;45.384;20.390;2023-07-20T02:19:56;6.05;;;3.25;;
55364;SDS011;41245;45.384;20.390;2023-07-20T02:22:24;7.45;;;3.10;;
55364;SDS011;41245;45.384;20.390;2023-07-20T02:24:51;7.03;;;3.22;;
55364;SDS011;41245;45.384;20.390;2023-07-20T02:27:17;11.30;;;3.95;;
55364;SDS011;41245;45.384;20.390;2023-07-20T02:29:43;13.35;;;3.92;;
55364;SDS011;41245;45.384;20.390;2023-07-20T02:32:09;9.68;;;2.80;;
55364;SDS011;41245;45.384;20.390;2023-07-20T02:34:35;8.30;;;2.95;;
55364;SDS011;41245;45.384;20.390;2023-07-20T02:37:02;11.40;;;3.00;;
55364;SDS011;41245;45.384;20.390;2023-07-20T02:39:28;9.85;;;3.55;;
55364;SDS011;41245;45.384;20.390;2023-07-20T02:41:54;5.05;;;3.40;;
55364;SDS011;41245;45.384;20.390;2023-07-20T02:44:20;13.27;;;3.67;;
55364;SDS011;41245;45.384;20.390;2023-07-20T02:46:46;12.05;;;3.75;;
55364;SDS011;41245;45.384;20.390;2023-07-20T02:49:14;11.90;;;3.35;;
55364;SDS011;41245;45.384;20.390;2023-07-20T02:51:41;6.88;;;3.05;;
55364;SDS011;41245;45.384;20.390;2023-07-20T02:54:07;6.20;;;3.30;;
55364;SDS011;41245;45.384;20.390;2023-07-20T02:56:33;10.43;;;5.25;;
55364;SDS011;41245;45.384;20.390;2023-07-20T02:59:00;12.07;;;5.22;;
55364;SDS011;41245;45.384;20.390;2023-07-20T03:01:27;12.20;;;3.78;;
55364;SDS011;41245;45.384;20.390;2023-07-20T03:03:54;7.70;;;2.88;;
55364;SDS011;41245;45.384;20.390;2023-07-20T03:06:20;9.75;;;4.45;;
55364;SDS011;41245;45.384;20.390;2023-07-20T03:08:46;7.43;;;3.30;;
55364;SDS011;41245;45.384;20.390;2023-07-20T03:11:16;8.80;;;3.15;;
55364;SDS011;41245;45.384;20.390;2023-07-20T03:13:43;7.47;;;3.15;;
55364;SDS011;41245;45.384;20.390;2023-07-20T03:16:09;11.85;;;3.78;;
55364;SDS011;41245;45.384;20.390;2023-07-20T03:18:36;8.40;;;3.35;;
55364;SDS011;41245;45.384;20.390;2023-07-20T03:21:03;12.82;;;3.15;;
55364;SDS011;41245;45.384;20.390;2023-07-20T03:23:29;10.32;;;3.50;;
55364;SDS011;41245;45.384;20.390;2023-07-20T03:25:55;8.98;;;3.67;;
55364;SDS011;41245;45.384;20.390;2023-07-20T03:28:22;9.73;;;3.22;;
55364;SDS011;41245;45.384;20.390;2023-07-20T03:30:54;9.10;;;3.22;;
55364;SDS011;41245;45.384;20.390;2023-07-20T03:33:27;9.90;;;3.20;;
55364;SDS011;41245;45.384;20.390;2023-07-20T03:35:54;8.07;;;3.15;;
55364;SDS011;41245;45.384;20.390;2023-07-20T03:38:20;7.25;;;3.20;;
55364;SDS011;41245;45.384;20.390;2023-07-20T03:40:56;9.80;;;3.63;;
55364;SDS011;41245;45.384;20.390;2023-07-20T03:43:23;9.18;;;3.90;;
55364;SDS011;41245;45.384;20.390;2023-07-20T03:45:49;13.55;;;4.25;;
55364;SDS011;41245;45.384;20.390;2023-07-20T03:48:16;7.45;;;3.70;;
55364;SDS011;41245;45.384;20.390;2023-07-20T03:50:43;8.63;;;3.63;;
55364;SDS011;41245;45.384;20.390;2023-07-20T03:53:10;11.38;;;3.35;;
55364;SDS011;41245;45.384;20.390;2023-07-20T03:55:36;11.50;;;3.67;;
55364;SDS011;41245;45.384;20.390;2023-07-20T03:58:02;7.43;;;3.17;;
55364;SDS011;41245;45.384;20.390;2023-07-20T04:00:28;12.18;;;3.63;;
55364;SDS011;41245;45.384;20.390;2023-07-20T04:02:54;15.75;;;4.47;;
55364;SDS011;41245;45.384;20.390;2023-07-20T04:05:20;9.82;;;4.35;;
55364;SDS011;41245;45.384;20.390;2023-07-20T04:07:46;21.52;;;5.18;;
55364;SDS011;41245;45.384;20.390;2023-07-20T04:10:12;13.77;;;4.47;;
55364;SDS011;41245;45.384;20.390;2023-07-20T04:12:39;7.68;;;3.45;;
55364;SDS011;41245;45.384;20.390;2023-07-20T04:15:05;12.85;;;4.00;;
55364;SDS011;41245;45.384;20.390;2023-07-20T04:17:31;7.75;;;3.78;;
55364;SDS011;41245;45.384;20.390;2023-07-20T04:19:57;12.63;;;4.13;;
55364;SDS011;41245;45.384;20.390;2023-07-20T04:22:23;9.05;;;4.30;;
55364;SDS011;41245;45.384;20.390;2023-07-20T04:24:49;15.38;;;5.68;;
55364;SDS011;41245;45.384;20.390;2023-07-20T04:27:15;12.68;;;5.13;;
55364;SDS011;41245;45.384;20.390;2023-07-20T04:29:42;11.27;;;4.78;;
55364;SDS011;41245;45.384;20.390;2023-07-20T04:32:08;17.33;;;5.00;;
55364;SDS011;41245;45.384;20.390;2023-07-20T04:34:34;12.27;;;4.72;;
55364;SDS011;41245;45.384;20.390;2023-07-20T04:37:02;8.38;;;3.70;;
55364;SDS011;41245;45.384;20.390;2023-07-20T04:39:28;15.25;;;5.43;;
55364;SDS011;41245;45.384;20.390;2023-07-20T04:41:54;8.57;;;4.72;;
55364;SDS011;41245;45.384;20.390;2023-07-20T04:44:20;12.75;;;4.45;;
55364;SDS011;41245;45.384;20.390;2023-07-20T04:46:46;6.32;;;4.32;;
55364;SDS011;41245;45.384;20.390;2023-07-20T04:49:12;17.98;;;4.25;;
55364;SDS011;41245;45.384;20.390;2023-07-20T04:51:39;9.00;;;3.88;;
55364;SDS011;41245;45.384;20.390;2023-07-20T04:54:05;10.10;;;4.03;;
55364;SDS011;41245;45.384;20.390;2023-07-20T04:56:31;12.82;;;4.70;;
55364;SDS011;41245;45.384;20.390;2023-07-20T04:58:58;16.42;;;4.55;;
55364;SDS011;41245;45.384;20.390;2023-07-20T05:01:24;9.38;;;3.80;;
55364;SDS011;41245;45.384;20.390;2023-07-20T05:03:51;11.60;;;3.80;;
55364;SDS011;41245;45.384;20.390;2023-07-20T05:06:17;6.93;;;4.13;;
55364;SDS011;41245;45.384;20.390;2023-07-20T05:08:44;13.27;;;3.63;;
55364;SDS011;41245;45.384;20.390;2023-07-20T05:11:10;9.85;;;4.05;;
55364;SDS011;41245;45.384;20.390;2023-07-20T05:13:37;8.75;;;3.85;;
55364;SDS011;41245;45.384;20.390;2023-07-20T05:16:03;7.88;;;3.10;;
55364;SDS011;41245;45.384;20.390;2023-07-20T05:18:29;10.90;;;4.15;;
55364;SDS011;41245;45.384;20.390;2023-07-20T05:20:56;11.40;;;4.65;;
55364;SDS011;41245;45.384;20.390;2023-07-20T05:23:22;13.20;;;5.03;;
55364;SDS011;41245;45.384;20.390;2023-07-20T05:25:58;12.00;;;4.60;;
55364;SDS011;41245;45.384;20.390;2023-07-20T05:28:24;10.90;;;3.95;;
55364;SDS011;41245;45.384;20.390;2023-07-20T05:30:51;9.25;;;5.53;;
55364;SDS011;41245;45.384;20.390;2023-07-20T05:33:18;9.25;;;4.55;;
55364;SDS011;41245;45.384;20.390;2023-07-20T05:35:44;10.27;;;4.25;;
55364;SDS011;41245;45.384;20.390;2023-07-20T05:38:11;10.52;;;4.47;;
55364;SDS011;41245;45.384;20.390;2023-07-20T05:40:37;15.02;;;4.93;;
55364;SDS011;41245;45.384;20.390;2023-07-20T05:43:03;7.05;;;4.43;;
55364;SDS011;41245;45.384;20.390;2023-07-20T05:45:29;8.98;;;4.95;;
55364;SDS011;41245;45.384;20.390;2023-07-20T05:47:55;8.50;;;4.43;;
55364;SDS011;41245;45.384;20.390;2023-07-20T05:50:21;26.10;;;5.78;;
55364;SDS011;41245;45.384;20.390;2023-07-20T05:52:47;11.25;;;4.90;;
55364;SDS011;41245;45.384;20.390;2023-07-20T05:55:14;12.45;;;5.28;;
55364;SDS011;41245;45.384;20.390;2023-07-20T05:57:40;9.52;;;4.40;;
55364;SDS011;41245;45.384;20.390;2023-07-20T06:00:08;10.25;;;4.47;;
55364;SDS011;41245;45.384;20.390;2023-07-20T06:02:34;9.40;;;4.93;;
55364;SDS011;41245;45.384;20.390;2023-07-20T06:05:00;12.45;;;4.72;;
55364;SDS011;41245;45.384;20.390;2023-07-20T06:07:26;14.82;;;5.97;;
55364;SDS011;41245;45.384;20.390;2023-07-20T06:09:52;8.45;;;4.55;;
55364;SDS011;41245;45.384;20.390;2023-07-20T06:12:18;13.95;;;5.72;;
55364;SDS011;41245;45.384;20.390;2023-07-20T06:14:44;9.77;;;4.57;;
55364;SDS011;41245;45.384;20.390;2023-07-20T06:17:11;9.73;;;4.30;;
55364;SDS011;41245;45.384;20.390;2023-07-20T06:19:37;13.10;;;4.57;;
55364;SDS011;41245;45.384;20.390;2023-07-20T06:22:03;9.50;;;5.07;;
55364;SDS011;41245;45.384;20.390;2023-07-20T06:24:29;7.32;;;4.13;;
55364;SDS011;41245;45.384;20.390;2023-07-20T06:26:55;7.57;;;4.70;;
55364;SDS011;41245;45.384;20.390;2023-07-20T06:29:21;7.32;;;4.63;;
55364;SDS011;41245;45.384;20.390;2023-07-20T06:31:48;11.02;;;5.22;;
55364;SDS011;41245;45.384;20.390;2023-07-20T06:34:14;9.07;;;4.28;;
55364;SDS011;41245;45.384;20.390;2023-07-20T06:36:40;8.38;;;4.35;;
55364;SDS011;41245;45.384;20.390;2023-07-20T06:39:06;10.95;;;4.10;;
55364;SDS011;41245;45.384;20.390;2023-07-20T06:41:32;12.35;;;4.15;;
55364;SDS011;41245;45.384;20.390;2023-07-20T06:43:58;8.73;;;3.97;;
55364;SDS011;41245;45.384;20.390;2023-07-20T06:46:27;13.07;;;4.50;;
55364;SDS011;41245;45.384;20.390;2023-07-20T06:48:53;12.30;;;5.68;;
55364;SDS011;41245;45.384;20.390;2023-07-20T06:51:20;6.28;;;4.40;;
55364;SDS011;41245;45.384;20.390;2023-07-20T06:53:47;13.88;;;5.03;;
55364;SDS011;41245;45.384;20.390;2023-07-20T06:56:13;8.02;;;4.22;;
55364;SDS011;41245;45.384;20.390;2023-07-20T06:58:39;10.40;;;5.00;;
55364;SDS011;41245;45.384;20.390;2023-07-20T07:01:06;13.07;;;5.47;;
55364;SDS011;41245;45.384;20.390;2023-07-20T07:03:32;11.30;;;4.70;;
55364;SDS011;41245;45.384;20.390;2023-07-20T07:05:58;14.77;;;6.15;;
55364;SDS011;41245;45.384;20.390;2023-07-20T07:08:25;11.48;;;4.75;;
55364;SDS011;41245;45.384;20.390;2023-07-20T07:10:51;9.18;;;4.57;;
55364;SDS011;41245;45.384;20.390;2023-07-20T07:13:18;8.35;;;4.18;;
55364;SDS011;41245;45.384;20.390;2023-07-20T07:15:44;8.60;;;5.18;;
55364;SDS011;41245;45.384;20.390;2023-07-20T07:18:11;9.63;;;4.57;;
55364;SDS011;41245;45.384;20.390;2023-07-20T07:20:37;14.00;;;5.20;;
55364;SDS011;41245;45.384;20.390;2023-07-20T07:23:03;8.77;;;4.88;;
55364;SDS011;41245;45.384;20.390;2023-07-20T07:25:29;9.95;;;3.72;;
55364;SDS011;41245;45.384;20.390;2023-07-20T07:27:57;9.52;;;5.13;;
55364;SDS011;41245;45.384;20.390;2023-07-20T07:30:23;13.55;;;4.75;;
55364;SDS011;41245;45.384;20.390;2023-07-20T07:32:49;10.95;;;5.15;;
55364;SDS011;41245;45.384;20.390;2023-07-20T07:35:15;14.48;;;5.15;;
55364;SDS011;41245;45.384;20.390;2023-07-20T07:37:41;12.15;;;4.75;;
55364;SDS011;41245;45.384;20.390;2023-07-20T07:40:07;10.75;;;4.75;;
55364;SDS011;41245;45.384;20.390;2023-07-20T07:42:34;9.13;;;5.05;;
55364;SDS011;41245;45.384;20.390;2023-07-20T07:45:00;14.13;;;5.15;;
55364;SDS011;41245;45.384;20.390;2023-07-20T07:47:26;11.45;;;4.93;;
55364;SDS011;41245;45.384;20.390;2023-07-20T07:49:52;14.75;;;5.50;;
55364;SDS011;41245;45.384;20.390;2023-07-20T07:52:18;13.70;;;5.97;;
55364;SDS011;41245;45.384;20.390;2023-07-20T07:54:44;11.30;;;5.38;;
55364;SDS011;41245;45.384;20.390;2023-07-20T07:57:10;8.23;;;5.07;;
55364;SDS011;41245;45.384;20.390;2023-07-20T07:59:36;13.45;;;5.22;;
55364;SDS011;41245;45.384;20.390;2023-07-20T08:02:04;14.13;;;6.03;;
55364;SDS011;41245;45.384;20.390;2023-07-20T08:04:30;12.35;;;5.63;;
55364;SDS011;41245;45.384;20.390;2023-07-20T08:06:56;11.40;;;4.82;;
55364;SDS011;41245;45.384;20.390;2023-07-20T08:09:22;14.68;;;4.90;;
55364;SDS011;41245;45.384;20.390;2023-07-20T08:11:49;7.93;;;5.00;;
55364;SDS011;41245;45.384;20.390;2023-07-20T08:14:15;12.88;;;5.45;;
55364;SDS011;41245;45.384;20.390;2023-07-20T08:16:41;12.82;;;5.75;;
55364;SDS011;41245;45.384;20.390;2023-07-20T08:19:08;9.57;;;4.55;;
55364;SDS011;41245;45.384;20.390;2023-07-20T08:21:34;8.02;;;4.88;;
55364;SDS011;41245;45.384;20.390;2023-07-20T08:24:00;9.55;;;5.00;;
55364;SDS011;41245;45.384;20.390;2023-07-20T08:26:26;13.30;;;5.30;;
55364;SDS011;41245;45.384;20.390;2023-07-20T08:28:52;8.95;;;4.45;;
55364;SDS011;41245;45.384;20.390;2023-07-20T08:31:18;10.75;;;5.28;;
55364;SDS011;41245;45.384;20.390;2023-07-20T08:33:45;8.60;;;5.75;;
55364;SDS011;41245;45.384;20.390;2023-07-20T08:36:11;11.43;;;5.40;;
55364;SDS011;41245;45.384;20.390;2023-07-20T08:38:37;11.95;;;5.35;;
55364;SDS011;41245;45.384;20.390;2023-07-20T08:41:03;13.20;;;5.47;;
55364;SDS011;41245;45.384;20.390;2023-07-20T08:43:29;11.20;;;5.78;;
55364;SDS011;41245;45.384;20.390;2023-07-20T08:45:56;10.18;;;5.97;;
55364;SDS011;41245;45.384;20.390;2023-07-20T08:48:22;11.05;;;6.10;;
55364;SDS011;41245;45.384;20.390;2023-07-20T08:50:50;11.38;;;5.30;;
55364;SDS011;41245;45.384;20.390;2023-07-20T08:53:18;15.70;;;6.00;;
55364;SDS011;41245;45.384;20.390;2023-07-20T08:55:44;8.43;;;5.38;;
55364;SDS011;41245;45.384;20.390;2023-07-20T08:58:13;15.48;;;6.15;;
55364;SDS011;41245;45.384;20.390;2023-07-20T09:00:41;12.10;;;4.68;;
55364;SDS011;41245;45.384;20.390;2023-07-20T09:03:07;15.15;;;5.28;;
55364;SDS011;41245;45.384;20.390;2023-07-20T09:05:34;23.30;;;5.70;;
55364;SDS011;41245;45.384;20.390;2023-07-20T09:08:01;11.57;;;5.57;;
55364;SDS011;41245;45.384;20.390;2023-07-20T09:10:30;12.23;;;5.68;;
55364;SDS011;41245;45.384;20.390;2023-07-20T09:12:56;12.75;;;6.50;;
55364;SDS011;41245;45.384;20.390;2023-07-20T09:15:22;7.93;;;5.10;;
55364;SDS011;41245;45.384;20.390;2023-07-20T09:17:49;10.93;;;6.43;;
55364;SDS011;41245;45.384;20.390;2023-07-20T09:20:16;9.95;;;6.03;;
55364;SDS011;41245;45.384;20.390;2023-07-20T09:22:43;18.75;;;4.68;;
55364;SDS011;41245;45.384;20.390;2023-07-20T09:25:13;10.38;;;4.82;;
55364;SDS011;41245;45.384;20.390;2023-07-20T09:27:40;5.07;;;4.40;;
55364;SDS011;41245;45.384;20.390;2023-07-20T09:30:06;8.15;;;3.88;;
55364;SDS011;41245;45.384;20.390;2023-07-20T09:32:40;9.25;;;4.70;;
55364;SDS011;41245;45.384;20.390;2023-07-20T09:35:06;10.45;;;4.45;;
55364;SDS011;41245;45.384;20.390;2023-07-20T09:37:33;14.63;;;4.53;;
55364;SDS011;41245;45.384;20.390;2023-07-20T09:39:59;8.63;;;3.85;;
55364;SDS011;41245;45.384;20.390;2023-07-20T09:42:25;11.48;;;4.22;;
55364;SDS011;41245;45.384;20.390;2023-07-20T09:44:52;7.65;;;4.18;;
55364;SDS011;41245;45.384;20.390;2023-07-20T09:47:22;7.68;;;3.58;;
55364;SDS011;41245;45.384;20.390;2023-07-20T09:49:48;6.72;;;4.28;;
55364;SDS011;41245;45.384;20.390;2023-07-20T09:52:14;10.65;;;4.25;;
55364;SDS011;41245;45.384;20.390;2023-07-20T09:54:40;16.33;;;3.60;;
55364;SDS011;41245;45.384;20.390;2023-07-20T09:57:08;7.38;;;3.42;;
55364;SDS011;41245;45.384;20.390;2023-07-20T09:59:35;13.63;;;3.80;;
55364;SDS011;41245;45.384;20.390;2023-07-20T10:02:01;11.85;;;4.72;;
55364;SDS011;41245;45.384;20.390;2023-07-20T10:04:31;7.97;;;3.90;;
55364;SDS011;41245;45.384;20.390;2023-07-20T10:07:00;8.33;;;3.83;;
55364;SDS011;41245;45.384;20.390;2023-07-20T10:09:31;12.10;;;4.80;;
55364;SDS011;41245;45.384;20.390;2023-07-20T10:11:57;4.63;;;3.45;;
55364;SDS011;41245;45.384;20.390;2023-07-20T10:14:25;14.60;;;3.70;;
55364;SDS011;41245;45.384;20.390;2023-07-20T10:16:58;10.88;;;4.60;;
55364;SDS011;41245;45.384;20.390;2023-07-20T10:19:43;7.85;;;3.90;;
55364;SDS011;41245;45.384;20.390;2023-07-20T10:22:12;7.75;;;3.40;;
55364;SDS011;41245;45.384;20.390;2023-07-20T10:24:39;6.70;;;4.17;;
55364;SDS011;41245;45.384;20.390;2023-07-20T10:27:05;9.00;;;3.83;;
55364;SDS011;41245;45.384;20.390;2023-07-20T10:29:31;11.20;;;3.67;;
55364;SDS011;41245;45.384;20.390;2023-07-20T10:31:58;6.88;;;3.75;;
55364;SDS011;41245;45.384;20.390;2023-07-20T10:34:24;6.97;;;3.90;;
55364;SDS011;41245;45.384;20.390;2023-07-20T10:36:50;4.63;;;2.90;;
55364;SDS011;41245;45.384;20.390;2023-07-20T10:39:26;9.68;;;4.28;;
55364;SDS011;41245;45.384;20.390;2023-07-20T10:42:08;6.22;;;3.58;;
55364;SDS011;41245;45.384;20.390;2023-07-20T10:44:38;7.68;;;3.42;;
55364;SDS011;41245;45.384;20.390;2023-07-20T10:47:09;10.43;;;3.50;;
55364;SDS011;41245;45.384;20.390;2023-07-20T10:49:35;7.82;;;4.28;;
55364;SDS011;41245;45.384;20.390;2023-07-20T10:52:04;5.45;;;3.97;;
55364;SDS011;41245;45.384;20.390;2023-07-20T10:57:21;8.60;;;3.83;;
55364;SDS011;41245;45.384;20.390;2023-07-20T10:59:45;7.00;;;3.80;;
55364;SDS011;41245;45.384;20.390;2023-07-20T11:02:12;9.00;;;4.25;;
55364;SDS011;41245;45.384;20.390;2023-07-20T11:04:39;8.85;;;4.28;;
55364;SDS011;41245;45.384;20.390;2023-07-20T11:07:05;14.50;;;3.95;;
55364;SDS011;41245;45.384;20.390;2023-07-20T11:09:34;8.40;;;4.13;;
55364;SDS011;41245;45.384;20.390;2023-07-20T11:14:26;8.95;;;4.40;;
55364;SDS011;41245;45.384;20.390;2023-07-20T11:16:53;8.40;;;4.55;;
55364;SDS011;41245;45.384;20.390;2023-07-20T11:21:55;7.00;;;3.78;;
55364;SDS011;41245;45.384;20.390;2023-07-20T11:24:21;7.57;;;3.55;;
55364;SDS011;41245;45.384;20.390;2023-07-20T11:26:48;8.73;;;4.30;;
55364;SDS011;41245;45.384;20.390;2023-07-20T11:29:15;9.70;;;3.60;;
55364;SDS011;41245;45.384;20.390;2023-07-20T11:31:42;5.50;;;3.65;;
55364;SDS011;41245;45.384;20.390;2023-07-20T11:34:12;9.85;;;4.03;;
55364;SDS011;41245;45.384;20.390;2023-07-20T11:36:42;5.70;;;4.15;;
55364;SDS011;41245;45.384;20.390;2023-07-20T11:39:09;7.13;;;3.10;;
55364;SDS011;41245;45.384;20.390;2023-07-20T11:41:36;8.55;;;3.78;;
55364;SDS011;41245;45.384;20.390;2023-07-20T11:44:03;11.63;;;3.97;;
55364;SDS011;41245;45.384;20.390;2023-07-20T11:46:31;5.63;;;3.25;;
55364;SDS011;41245;45.384;20.390;2023-07-20T11:48:58;6.63;;;4.28;;
55364;SDS011;41245;45.384;20.390;2023-07-20T11:51:30;14.88;;;4.45;;
55364;SDS011;41245;45.384;20.390;2023-07-20T11:53:56;8.57;;;3.47;;
55364;SDS011;41245;45.384;20.390;2023-07-20T11:56:24;5.85;;;3.85;;
55364;SDS011;41245;45.384;20.390;2023-07-20T11:58:50;5.85;;;3.47;;
55364;SDS011;41245;45.384;20.390;2023-07-20T12:01:17;8.85;;;3.55;;
55364;SDS011;41245;45.384;20.390;2023-07-20T12:03:43;6.60;;;3.63;;
55364;SDS011;41245;45.384;20.390;2023-07-20T12:06:10;8.88;;;3.83;;
55364;SDS011;41245;45.384;20.390;2023-07-20T12:08:39;9.13;;;3.47;;
55364;SDS011;41245;45.384;20.390;2023-07-20T12:11:06;8.07;;;3.58;;
55364;SDS011;41245;45.384;20.390;2023-07-20T12:13:44;5.82;;;3.80;;
55364;SDS011;41245;45.384;20.390;2023-07-20T12:16:13;12.10;;;3.72;;
55364;SDS011;41245;45.384;20.390;2023-07-20T12:18:41;7.57;;;4.07;;
55364;SDS011;41245;45.384;20.390;2023-07-20T12:21:07;9.75;;;3.22;;
55364;SDS011;41245;45.384;20.390;2023-07-20T12:23:37;5.63;;;3.50;;
55364;SDS011;41245;45.384;20.390;2023-07-20T12:26:05;3.80;;;3.47;;
55364;SDS011;41245;45.384;20.390;2023-07-20T12:28:32;7.18;;;3.40;;
55364;SDS011;41245;45.384;20.390;2023-07-20T12:30:58;6.32;;;3.88;;
55364;SDS011;41245;45.384;20.390;2023-07-20T12:33:24;7.35;;;4.20;;
55364;SDS011;41245;45.384;20.390;2023-07-20T12:35:50;9.18;;;3.42;;
55364;SDS011;41245;45.384;20.390;2023-07-20T12:38:20;10.32;;;4.22;;
55364;SDS011;41245;45.384;20.390;2023-07-20T12:40:47;5.20;;;3.10;;
55364;SDS011;41245;45.384;20.390;2023-07-20T12:43:13;5.28;;;3.83;;
55364;SDS011;41245;45.384;20.390;2023-07-20T12:45:39;9.27;;;3.65;;
55364;SDS011;41245;45.384;20.390;2023-07-20T12:48:06;4.88;;;3.83;;
55364;SDS011;41245;45.384;20.390;2023-07-20T12:50:32;6.43;;;4.10;;
55364;SDS011;41245;45.384;20.390;2023-07-20T12:52:58;7.70;;;3.75;;
55364;SDS011;41245;45.384;20.390;2023-07-20T12:55:24;11.48;;;4.15;;
55364;SDS011;41245;45.384;20.390;2023-07-20T12:57:50;9.25;;;4.22;;
55364;SDS011;41245;45.384;20.390;2023-07-20T13:00:17;5.90;;;3.65;;
55364;SDS011;41245;45.384;20.390;2023-07-20T13:02:43;7.88;;;3.90;;
55364;SDS011;41245;45.384;20.390;2023-07-20T13:05:09;7.90;;;3.75;;
55364;SDS011;41245;45.384;20.390;2023-07-20T13:07:36;12.15;;;4.53;;
55364;SDS011;41245;45.384;20.390;2023-07-20T13:10:03;7.18;;;3.50;;
55364;SDS011;41245;45.384;20.390;2023-07-20T13:12:31;12.52;;;3.78;;
55364;SDS011;41245;45.384;20.390;2023-07-20T13:14:57;9.02;;;3.70;;
55364;SDS011;41245;45.384;20.390;2023-07-20T13:17:27;9.20;;;3.92;;
55364;SDS011;41245;45.384;20.390;2023-07-20T13:19:54;8.90;;;4.18;;
55364;SDS011;41245;45.384;20.390;2023-07-20T13:22:20;6.03;;;3.22;;
55364;SDS011;41245;45.384;20.390;2023-07-20T13:24:46;10.57;;;3.75;;
55364;SDS011;41245;45.384;20.390;2023-07-20T13:27:15;9.80;;;4.57;;
55364;SDS011;41245;45.384;20.390;2023-07-20T13:29:41;8.00;;;3.80;;
55364;SDS011;41245;45.384;20.390;2023-07-20T13:32:07;6.88;;;3.80;;
55364;SDS011;41245;45.384;20.390;2023-07-20T13:34:34;7.00;;;3.92;;
55364;SDS011;41245;45.384;20.390;2023-07-20T13:37:00;5.95;;;3.75;;
55364;SDS011;41245;45.384;20.390;2023-07-20T13:39:26;11.82;;;2.90;;
55364;SDS011;41245;45.384;20.390;2023-07-20T13:41:53;7.82;;;3.72;;
55364;SDS011;41245;45.384;20.390;2023-07-20T13:44:19;7.57;;;3.60;;
55364;SDS011;41245;45.384;20.390;2023-07-20T13:46:46;7.53;;;3.85;;
55364;SDS011;41245;45.384;20.390;2023-07-20T13:49:12;5.10;;;3.78;;
55364;SDS011;41245;45.384;20.390;2023-07-20T13:51:39;7.38;;;3.40;;
55364;SDS011;41245;45.384;20.390;2023-07-20T13:54:05;17.95;;;3.63;;
55364;SDS011;41245;45.384;20.390;2023-07-20T13:56:31;5.47;;;3.35;;
55364;SDS011;41245;45.384;20.390;2023-07-20T13:58:57;7.88;;;3.38;;
55364;SDS011;41245;45.384;20.390;2023-07-20T14:01:23;6.05;;;3.70;;
55364;SDS011;41245;45.384;20.390;2023-07-20T14:03:53;13.57;;;3.65;;
55364;SDS011;41245;45.384;20.390;2023-07-20T14:06:19;6.50;;;3.88;;
55364;SDS011;41245;45.384;20.390;2023-07-20T14:08:45;12.77;;;3.65;;
55364;SDS011;41245;45.384;20.390;2023-07-20T14:11:15;9.15;;;3.88;;
55364;SDS011;41245;45.384;20.390;2023-07-20T14:13:41;6.03;;;3.15;;
55364;SDS011;41245;45.384;20.390;2023-07-20T14:16:07;5.75;;;3.10;;
55364;SDS011;41245;45.384;20.390;2023-07-20T14:18:33;10.07;;;3.33;;
55364;SDS011;41245;45.384;20.390;2023-07-20T14:21:00;5.22;;;2.83;;
55364;SDS011;41245;45.384;20.390;2023-07-20T14:23:28;3.92;;;3.05;;
55364;SDS011;41245;45.384;20.390;2023-07-20T14:25:54;4.55;;;3.33;;
55364;SDS011;41245;45.384;20.390;2023-07-20T14:28:20;7.53;;;3.05;;
55364;SDS011;41245;45.384;20.390;2023-07-20T14:30:46;6.53;;;2.70;;
55364;SDS011;41245;45.384;20.390;2023-07-20T14:33:12;4.22;;;2.60;;
55364;SDS011;41245;45.384;20.390;2023-07-20T14:35:38;7.50;;;2.72;;
55364;SDS011;41245;45.384;20.390;2023-07-20T14:38:04;4.28;;;2.85;;
55364;SDS011;41245;45.384;20.390;2023-07-20T14:40:30;10.80;;;3.60;;
55364;SDS011;41245;45.384;20.390;2023-07-20T14:42:56;5.47;;;3.10;;
55364;SDS011;41245;45.384;20.390;2023-07-20T14:45:23;4.55;;;3.10;;